sensor_id;sensor_type;location;lat;lon;timestamp;temperature;humidity
61392;DHT22;47261;52.892;5.738;2023-04-01T00:00:17;10.90;99.90
61392;DHT22;47261;52.892;5.738;2023-04-01T00:02:43;10.90;99.90
61392;DHT22;47261;52.892;5.738;2023-04-01T00:05:09;10.90;99.90
61392;DHT22;47261;52.892;5.738;2023-04-01T00:07:37;10.90;99.90
61392;DHT22;47261;52.892;5.738;2023-04-01T00:10:07;10.90;99.90
61392;DHT22;47261;52.892;5.738;2023-04-01T00:12:34;10.90;99.90
61392;DHT22;47261;52.892;5.738;2023-04-01T00:15:00;10.90;99.90
61392;DHT22;47261;52.892;5.738;2023-04-01T00:17:27;10.90;99.90
61392;DHT22;47261;52.892;5.738;2023-04-01T00:19:55;10.90;99.90
61392;DHT22;47261;52.892;5.738;2023-04-01T00:22:21;10.90;99.90
61392;DHT22;47261;52.892;5.738;2023-04-01T00:24:47;11.00;99.90
61392;DHT22;47261;52.892;5.738;2023-04-01T00:27:13;11.00;99.90
61392;DHT22;47261;52.892;5.738;2023-04-01T00:29:42;11.00;99.90
61392;DHT22;47261;52.892;5.738;2023-04-01T00:32:08;11.00;99.90
61392;DHT22;47261;52.892;5.738;2023-04-01T00:34:34;11.00;99.90
61392;DHT22;47261;52.892;5.738;2023-04-01T00:37:00;11.00;99.90
61392;DHT22;47261;52.892;5.738;2023-04-01T00:39:28;10.90;99.90
61392;DHT22;47261;52.892;5.738;2023-04-01T00:41:54;10.90;99.90
61392;DHT22;47261;52.892;5.738;2023-04-01T00:44:25;10.90;99.90
61392;DHT22;47261;52.892;5.738;2023-04-01T00:46:51;10.90;99.90
61392;DHT22;47261;52.892;5.738;2023-04-01T00:49:20;10.90;99.90
61392;DHT22;47261;52.892;5.738;2023-04-01T00:51:50;10.90;99.90
61392;DHT22;47261;52.892;5.738;2023-04-01T00:54:16;10.90;99.90
61392;DHT22;47261;52.892;5.738;2023-04-01T00:59:26;10.90;99.90
61392;DHT22;47261;52.892;5.738;2023-04-01T01:01:53;10.90;99.90
61392;DHT22;47261;52.892;5.738;2023-04-01T01:04:30;10.90;99.90
61392;DHT22;47261;52.892;5.738;2023-04-01T01:07:12;10.90;99.90
61392;DHT22;47261;52.892;5.738;2023-04-01T01:14:57;10.90;99.90
61392;DHT22;47261;52.892;5.738;2023-04-01T01:17:56;10.90;99.90
61392;DHT22;47261;52.892;5.738;2023-04-01T01:20:24;10.90;99.90
61392;DHT22;47261;52.892;5.738;2023-04-01T01:23:32;10.90;99.90
61392;DHT22;47261;52.892;5.738;2023-04-01T01:34:42;10.90;99.90
61392;DHT22;47261;52.892;5.738;2023-04-01T01:37:15;10.90;99.90
61392;DHT22;47261;52.892;5.738;2023-04-01T01:39:44;11.00;99.90
61392;DHT22;47261;52.892;5.738;2023-04-01T01:42:13;11.00;99.90
61392;DHT22;47261;52.892;5.738;2023-04-01T01:44:42;11.00;99.90
61392;DHT22;47261;52.892;5.738;2023-04-01T01:47:09;11.00;99.90
61392;DHT22;47261;52.892;5.738;2023-04-01T01:49:36;11.00;99.90
61392;DHT22;47261;52.892;5.738;2023-04-01T01:52:02;11.00;99.90
61392;DHT22;47261;52.892;5.738;2023-04-01T01:54:29;11.00;99.90
61392;DHT22;47261;52.892;5.738;2023-04-01T01:57:05;11.00;99.90
61392;DHT22;47261;52.892;5.738;2023-04-01T01:59:33;11.00;99.90
61392;DHT22;47261;52.892;5.738;2023-04-01T02:02:01;11.00;99.90
61392;DHT22;47261;52.892;5.738;2023-04-01T02:04:40;11.00;99.90
61392;DHT22;47261;52.892;5.738;2023-04-01T02:07:12;11.10;99.90
61392;DHT22;47261;52.892;5.738;2023-04-01T02:09:39;11.10;99.90
61392;DHT22;47261;52.892;5.738;2023-04-01T02:12:10;11.10;99.90
61392;DHT22;47261;52.892;5.738;2023-04-01T02:17:14;11.10;99.90
61392;DHT22;47261;52.892;5.738;2023-04-01T02:19:50;11.10;99.90
61392;DHT22;47261;52.892;5.738;2023-04-01T02:22:21;11.10;99.90
61392;DHT22;47261;52.892;5.738;2023-04-01T02:24:49;11.10;99.90
61392;DHT22;47261;52.892;5.738;2023-04-01T02:27:15;11.10;99.90
61392;DHT22;47261;52.892;5.738;2023-04-01T02:29:41;11.10;99.90
61392;DHT22;47261;52.892;5.738;2023-04-01T02:32:08;11.10;99.90
61392;DHT22;47261;52.892;5.738;2023-04-01T02:34:35;11.10;99.90
61392;DHT22;47261;52.892;5.738;2023-04-01T02:37:01;11.10;99.90
61392;DHT22;47261;52.892;5.738;2023-04-01T02:39:27;11.10;99.90
61392;DHT22;47261;52.892;5.738;2023-04-01T02:41:53;11.20;99.90
61392;DHT22;47261;52.892;5.738;2023-04-01T02:44:19;11.10;99.90
61392;DHT22;47261;52.892;5.738;2023-04-01T02:46:45;11.20;99.90
61392;DHT22;47261;52.892;5.738;2023-04-01T02:49:10;11.10;99.90
61392;DHT22;47261;52.892;5.738;2023-04-01T02:51:36;11.10;99.90
61392;DHT22;47261;52.892;5.738;2023-04-01T02:54:02;11.20;99.90
61392;DHT22;47261;52.892;5.738;2023-04-01T02:56:28;11.20;99.90
61392;DHT22;47261;52.892;5.738;2023-04-01T02:58:54;11.20;99.90
61392;DHT22;47261;52.892;5.738;2023-04-01T03:01:20;11.20;99.90
61392;DHT22;47261;52.892;5.738;2023-04-01T03:03:46;11.20;99.90
61392;DHT22;47261;52.892;5.738;2023-04-01T03:06:14;11.20;99.90
61392;DHT22;47261;52.892;5.738;2023-04-01T03:08:40;11.20;99.90
61392;DHT22;47261;52.892;5.738;2023-04-01T03:11:06;11.20;99.90
61392;DHT22;47261;52.892;5.738;2023-04-01T03:13:32;11.20;99.90
61392;DHT22;47261;52.892;5.738;2023-04-01T03:15:58;11.20;99.90
61392;DHT22;47261;52.892;5.738;2023-04-01T03:18:24;11.20;99.90
61392;DHT22;47261;52.892;5.738;2023-04-01T03:20:50;11.20;99.90
61392;DHT22;47261;52.892;5.738;2023-04-01T03:23:16;11.20;99.90
61392;DHT22;47261;52.892;5.738;2023-04-01T03:25:45;11.20;99.90
61392;DHT22;47261;52.892;5.738;2023-04-01T03:28:10;11.10;99.90
61392;DHT22;47261;52.892;5.738;2023-04-01T03:30:37;11.10;99.90
61392;DHT22;47261;52.892;5.738;2023-04-01T03:33:03;11.20;99.90
61392;DHT22;47261;52.892;5.738;2023-04-01T03:35:29;11.10;99.90
61392;DHT22;47261;52.892;5.738;2023-04-01T03:37:55;11.10;99.90
61392;DHT22;47261;52.892;5.738;2023-04-01T03:40:21;11.10;99.90
61392;DHT22;47261;52.892;5.738;2023-04-01T03:42:47;11.10;99.90
61392;DHT22;47261;52.892;5.738;2023-04-01T03:45:13;11.00;99.90
61392;DHT22;47261;52.892;5.738;2023-04-01T03:47:39;11.00;99.90
61392;DHT22;47261;52.892;5.738;2023-04-01T03:50:06;11.00;99.90
61392;DHT22;47261;52.892;5.738;2023-04-01T03:52:32;11.00;99.90
61392;DHT22;47261;52.892;5.738;2023-04-01T03:54:58;11.00;99.90
61392;DHT22;47261;52.892;5.738;2023-04-01T03:57:23;11.00;99.90
61392;DHT22;47261;52.892;5.738;2023-04-01T03:59:49;10.90;99.90
61392;DHT22;47261;52.892;5.738;2023-04-01T04:02:15;10.90;99.90
61392;DHT22;47261;52.892;5.738;2023-04-01T04:04:40;10.90;99.90
61392;DHT22;47261;52.892;5.738;2023-04-01T04:07:06;10.80;99.90
61392;DHT22;47261;52.892;5.738;2023-04-01T04:09:32;10.80;99.90
61392;DHT22;47261;52.892;5.738;2023-04-01T04:11:59;10.80;99.90
61392;DHT22;47261;52.892;5.738;2023-04-01T04:14:25;10.80;99.90
61392;DHT22;47261;52.892;5.738;2023-04-01T04:16:51;10.80;99.90
61392;DHT22;47261;52.892;5.738;2023-04-01T04:19:17;10.70;99.90
61392;DHT22;47261;52.892;5.738;2023-04-01T04:21:43;10.80;99.90
61392;DHT22;47261;52.892;5.738;2023-04-01T04:24:09;10.80;99.90
61392;DHT22;47261;52.892;5.738;2023-04-01T04:26:35;10.80;99.90
61392;DHT22;47261;52.892;5.738;2023-04-01T04:29:02;10.70;99.90
61392;DHT22;47261;52.892;5.738;2023-04-01T04:31:28;10.70;99.90
61392;DHT22;47261;52.892;5.738;2023-04-01T04:33:54;10.70;99.90
61392;DHT22;47261;52.892;5.738;2023-04-01T04:36:20;10.70;99.90
61392;DHT22;47261;52.892;5.738;2023-04-01T04:38:46;10.70;99.90
61392;DHT22;47261;52.892;5.738;2023-04-01T04:41:13;10.70;99.90
61392;DHT22;47261;52.892;5.738;2023-04-01T04:43:40;10.70;99.90
61392;DHT22;47261;52.892;5.738;2023-04-01T04:46:10;10.70;99.90
61392;DHT22;47261;52.892;5.738;2023-04-01T04:48:36;10.70;99.90
61392;DHT22;47261;52.892;5.738;2023-04-01T04:51:03;10.70;99.90
61392;DHT22;47261;52.892;5.738;2023-04-01T04:53:28;10.70;99.90
61392;DHT22;47261;52.892;5.738;2023-04-01T04:55:54;10.70;99.90
61392;DHT22;47261;52.892;5.738;2023-04-01T04:58:20;10.70;99.90
61392;DHT22;47261;52.892;5.738;2023-04-01T05:00:46;10.70;99.90
61392;DHT22;47261;52.892;5.738;2023-04-01T05:03:13;10.70;99.90
61392;DHT22;47261;52.892;5.738;2023-04-01T05:05:39;10.70;99.90
61392;DHT22;47261;52.892;5.738;2023-04-01T05:08:05;10.70;99.90
61392;DHT22;47261;52.892;5.738;2023-04-01T05:10:31;10.70;99.90
61392;DHT22;47261;52.892;5.738;2023-04-01T05:12:58;10.70;99.90
61392;DHT22;47261;52.892;5.738;2023-04-01T05:15:24;10.70;99.90
61392;DHT22;47261;52.892;5.738;2023-04-01T05:17:50;10.70;99.90
61392;DHT22;47261;52.892;5.738;2023-04-01T05:20:16;10.70;99.90
61392;DHT22;47261;52.892;5.738;2023-04-01T05:22:42;10.70;99.90
61392;DHT22;47261;52.892;5.738;2023-04-01T05:25:08;10.80;99.90
61392;DHT22;47261;52.892;5.738;2023-04-01T05:27:34;10.80;99.90
61392;DHT22;47261;52.892;5.738;2023-04-01T05:30:00;10.80;99.90
61392;DHT22;47261;52.892;5.738;2023-04-01T05:32:26;10.80;99.90
61392;DHT22;47261;52.892;5.738;2023-04-01T05:34:52;10.80;99.90
61392;DHT22;47261;52.892;5.738;2023-04-01T05:37:18;10.90;99.90
61392;DHT22;47261;52.892;5.738;2023-04-01T05:39:44;10.90;99.90
61392;DHT22;47261;52.892;5.738;2023-04-01T05:42:09;10.90;99.90
61392;DHT22;47261;52.892;5.738;2023-04-01T05:44:35;10.90;99.90
61392;DHT22;47261;52.892;5.738;2023-04-01T05:47:02;11.00;99.90
61392;DHT22;47261;52.892;5.738;2023-04-01T05:49:28;11.00;99.90
61392;DHT22;47261;52.892;5.738;2023-04-01T05:51:53;11.00;99.90
61392;DHT22;47261;52.892;5.738;2023-04-01T05:54:20;11.00;99.90
61392;DHT22;47261;52.892;5.738;2023-04-01T05:56:46;11.10;99.90
61392;DHT22;47261;52.892;5.738;2023-04-01T05:59:12;11.10;99.90
61392;DHT22;47261;52.892;5.738;2023-04-01T06:01:38;11.10;99.90
61392;DHT22;47261;52.892;5.738;2023-04-01T06:04:04;11.10;99.90
61392;DHT22;47261;52.892;5.738;2023-04-01T06:06:30;11.10;99.90
61392;DHT22;47261;52.892;5.738;2023-04-01T06:20:50;11.20;99.90
61392;DHT22;47261;52.892;5.738;2023-04-01T06:26:23;11.20;99.90
61392;DHT22;47261;52.892;5.738;2023-04-01T06:36:47;11.30;99.90
61392;DHT22;47261;52.892;5.738;2023-04-01T06:51:07;11.40;99.90
61392;DHT22;47261;52.892;5.738;2023-04-01T06:56:21;11.40;99.90
61392;DHT22;47261;52.892;5.738;2023-04-01T06:58:58;11.40;99.90
61392;DHT22;47261;52.892;5.738;2023-04-01T07:01:35;11.40;99.90
61392;DHT22;47261;52.892;5.738;2023-04-01T07:04:09;11.40;99.90
61392;DHT22;47261;52.892;5.738;2023-04-01T07:06:43;11.40;99.90
61392;DHT22;47261;52.892;5.738;2023-04-01T07:09:13;11.40;99.90
61392;DHT22;47261;52.892;5.738;2023-04-01T07:11:40;11.40;99.90
61392;DHT22;47261;52.892;5.738;2023-04-01T07:14:25;11.40;99.90
61392;DHT22;47261;52.892;5.738;2023-04-01T07:16:59;11.40;99.90
61392;DHT22;47261;52.892;5.738;2023-04-01T07:19:32;11.40;99.90
61392;DHT22;47261;52.892;5.738;2023-04-01T07:22:22;11.40;99.90
61392;DHT22;47261;52.892;5.738;2023-04-01T07:24:50;11.40;99.90
61392;DHT22;47261;52.892;5.738;2023-04-01T07:27:16;11.50;99.90
61392;DHT22;47261;52.892;5.738;2023-04-01T07:29:42;11.40;99.90
61392;DHT22;47261;52.892;5.738;2023-04-01T07:34:57;11.50;99.90
61392;DHT22;47261;52.892;5.738;2023-04-01T07:37:48;11.50;99.90
61392;DHT22;47261;52.892;5.738;2023-04-01T07:40:37;11.50;99.90
61392;DHT22;47261;52.892;5.738;2023-04-01T07:46:13;11.50;99.90
61392;DHT22;47261;52.892;5.738;2023-04-01T07:48:55;11.50;99.90
61392;DHT22;47261;52.892;5.738;2023-04-01T08:14:22;11.70;99.90
61392;DHT22;47261;52.892;5.738;2023-04-01T08:16:55;11.70;99.90
61392;DHT22;47261;52.892;5.738;2023-04-01T08:22:48;11.70;99.90
61392;DHT22;47261;52.892;5.738;2023-04-01T08:25:22;11.80;99.90
61392;DHT22;47261;52.892;5.738;2023-04-01T08:30:37;11.90;99.90
61392;DHT22;47261;52.892;5.738;2023-04-01T08:33:08;12.10;99.90
61392;DHT22;47261;52.892;5.738;2023-04-01T08:38:38;12.20;99.90
61392;DHT22;47261;52.892;5.738;2023-04-01T08:44:22;12.40;99.90
61392;DHT22;47261;52.892;5.738;2023-04-01T08:52:41;12.60;99.90
61392;DHT22;47261;52.892;5.738;2023-04-01T09:09:48;12.70;99.90
61392;DHT22;47261;52.892;5.738;2023-04-01T09:12:31;12.70;99.90
61392;DHT22;47261;52.892;5.738;2023-04-01T09:15:36;12.70;99.90
61392;DHT22;47261;52.892;5.738;2023-04-01T09:25:15;12.90;99.90
61392;DHT22;47261;52.892;5.738;2023-04-01T09:38:30;13.50;99.90
61392;DHT22;47261;52.892;5.738;2023-04-01T09:54:57;13.80;99.90
61392;DHT22;47261;52.892;5.738;2023-04-01T10:14:58;13.50;99.90
61392;DHT22;47261;52.892;5.738;2023-04-01T10:26:08;13.10;99.90
61392;DHT22;47261;52.892;5.738;2023-04-01T10:36:55;12.70;99.90
61392;DHT22;47261;52.892;5.738;2023-04-01T10:54:13;12.40;99.90
61392;DHT22;47261;52.892;5.738;2023-04-01T11:08:54;12.20;99.90
61392;DHT22;47261;52.892;5.738;2023-04-01T11:17:35;12.00;99.90
61392;DHT22;47261;52.892;5.738;2023-04-01T11:19:47;12.00;99.90
61392;DHT22;47261;52.892;5.738;2023-04-01T11:25:25;12.00;99.90
61392;DHT22;47261;52.892;5.738;2023-04-01T11:28:17;12.10;99.90
61392;DHT22;47261;52.892;5.738;2023-04-01T11:31:04;12.20;99.90
61392;DHT22;47261;52.892;5.738;2023-04-01T11:44:29;12.40;99.90
61392;DHT22;47261;52.892;5.738;2023-04-01T11:47:25;12.30;99.90
61392;DHT22;47261;52.892;5.738;2023-04-01T11:58:22;12.30;99.90
61392;DHT22;47261;52.892;5.738;2023-04-01T12:06:16;12.40;99.90
61392;DHT22;47261;52.892;5.738;2023-04-01T12:15:03;12.40;99.90
61392;DHT22;47261;52.892;5.738;2023-04-01T12:17:32;12.30;99.90
61392;DHT22;47261;52.892;5.738;2023-04-01T12:28:54;12.50;99.90
61392;DHT22;47261;52.892;5.738;2023-04-01T12:32:02;12.50;99.90
61392;DHT22;47261;52.892;5.738;2023-04-01T12:34:49;12.50;99.90
61392;DHT22;47261;52.892;5.738;2023-04-01T12:45:48;12.50;99.90
61392;DHT22;47261;52.892;5.738;2023-04-01T13:05:37;12.30;99.90
61392;DHT22;47261;52.892;5.738;2023-04-01T13:10:54;12.30;99.90
61392;DHT22;47261;52.892;5.738;2023-04-01T13:16:22;12.20;99.90
61392;DHT22;47261;52.892;5.738;2023-04-01T13:19:01;12.20;99.90
61392;DHT22;47261;52.892;5.738;2023-04-01T13:27:30;12.30;99.90
61392;DHT22;47261;52.892;5.738;2023-04-01T13:32:44;12.30;99.90
61392;DHT22;47261;52.892;5.738;2023-04-01T13:35:18;12.30;99.90
61392;DHT22;47261;52.892;5.738;2023-04-01T13:38:08;12.30;99.90
61392;DHT22;47261;52.892;5.738;2023-04-01T13:43:49;12.40;99.90
61392;DHT22;47261;52.892;5.738;2023-04-01T13:55:07;12.40;99.90
61392;DHT22;47261;52.892;5.738;2023-04-01T14:03:32;12.30;99.90
61392;DHT22;47261;52.892;5.738;2023-04-01T14:08:46;12.30;99.90
61392;DHT22;47261;52.892;5.738;2023-04-01T14:16:58;12.30;99.90
61392;DHT22;47261;52.892;5.738;2023-04-01T14:22:13;12.30;99.90
61392;DHT22;47261;52.892;5.738;2023-04-01T14:30:19;12.30;99.90
61392;DHT22;47261;52.892;5.738;2023-04-01T14:33:01;12.30;99.90
61392;DHT22;47261;52.892;5.738;2023-04-01T14:38:17;12.20;99.90
61392;DHT22;47261;52.892;5.738;2023-04-01T14:46:30;11.90;99.90
61392;DHT22;47261;52.892;5.738;2023-04-01T14:49:22;11.80;99.90
61392;DHT22;47261;52.892;5.738;2023-04-01T14:51:49;11.80;99.90
61392;DHT22;47261;52.892;5.738;2023-04-01T14:54:31;11.70;99.90
61392;DHT22;47261;52.892;5.738;2023-04-01T14:59:30;11.50;99.90
61392;DHT22;47261;52.892;5.738;2023-04-01T15:08:09;11.30;99.90
61392;DHT22;47261;52.892;5.738;2023-04-01T15:27:41;10.90;99.90
61392;DHT22;47261;52.892;5.738;2023-04-01T15:30:23;10.80;99.90
61392;DHT22;47261;52.892;5.738;2023-04-01T15:33:14;10.80;99.90
61392;DHT22;47261;52.892;5.738;2023-04-01T15:38:35;10.80;99.90
61392;DHT22;47261;52.892;5.738;2023-04-01T15:43:47;10.70;99.90
61392;DHT22;47261;52.892;5.738;2023-04-01T15:52:06;10.60;99.90
61392;DHT22;47261;52.892;5.738;2023-04-01T16:02:34;10.40;99.90
61392;DHT22;47261;52.892;5.738;2023-04-01T16:10:52;10.40;99.90
61392;DHT22;47261;52.892;5.738;2023-04-01T16:13:37;10.40;99.90
61392;DHT22;47261;52.892;5.738;2023-04-01T16:19:08;10.30;99.90
61392;DHT22;47261;52.892;5.738;2023-04-01T16:30:24;10.10;99.90
61392;DHT22;47261;52.892;5.738;2023-04-01T16:33:00;10.10;99.90
61392;DHT22;47261;52.892;5.738;2023-04-01T16:41:27;10.00;99.90
61392;DHT22;47261;52.892;5.738;2023-04-01T16:44:22;9.90;99.90
61392;DHT22;47261;52.892;5.738;2023-04-01T16:46:59;9.90;99.90
61392;DHT22;47261;52.892;5.738;2023-04-01T16:49:50;9.80;99.90
61392;DHT22;47261;52.892;5.738;2023-04-01T16:52:40;9.80;99.90
61392;DHT22;47261;52.892;5.738;2023-04-01T16:56:20;9.70;99.90
61392;DHT22;47261;52.892;5.738;2023-04-01T16:58:37;9.70;99.90
61392;DHT22;47261;52.892;5.738;2023-04-01T17:01:21;9.60;99.90
61392;DHT22;47261;52.892;5.738;2023-04-01T17:03:57;9.60;99.90
61392;DHT22;47261;52.892;5.738;2023-04-01T17:06:34;9.60;99.90
61392;DHT22;47261;52.892;5.738;2023-04-01T17:14:42;9.50;99.90
61392;DHT22;47261;52.892;5.738;2023-04-01T17:36:45;9.30;99.90
61392;DHT22;47261;52.892;5.738;2023-04-01T17:38:56;9.20;99.90
61392;DHT22;47261;52.892;5.738;2023-04-01T17:41:47;9.20;99.90
61392;DHT22;47261;52.892;5.738;2023-04-01T17:47:08;9.10;99.90
61392;DHT22;47261;52.892;5.738;2023-04-01T17:49:42;9.10;99.90
61392;DHT22;47261;52.892;5.738;2023-04-01T17:52:44;9.00;99.90
61392;DHT22;47261;52.892;5.738;2023-04-01T17:58:14;8.90;99.90
61392;DHT22;47261;52.892;5.738;2023-04-01T18:07:25;8.80;99.90
61392;DHT22;47261;52.892;5.738;2023-04-01T18:23:53;8.70;99.90
61392;DHT22;47261;52.892;5.738;2023-04-01T18:26:23;8.70;99.90
61392;DHT22;47261;52.892;5.738;2023-04-01T18:31:51;8.60;99.90
61392;DHT22;47261;52.892;5.738;2023-04-01T18:35:12;8.60;99.90
61392;DHT22;47261;52.892;5.738;2023-04-01T18:40:27;8.60;99.90
61392;DHT22;47261;52.892;5.738;2023-04-01T18:43:00;8.50;99.90
61392;DHT22;47261;52.892;5.738;2023-04-01T18:45:31;8.50;99.90
61392;DHT22;47261;52.892;5.738;2023-04-01T18:48:11;8.50;99.90
61392;DHT22;47261;52.892;5.738;2023-04-01T18:50:58;8.50;99.90
61392;DHT22;47261;52.892;5.738;2023-04-01T18:53:38;8.50;99.90
61392;DHT22;47261;52.892;5.738;2023-04-01T18:56:09;8.40;99.90
61392;DHT22;47261;52.892;5.738;2023-04-01T18:58:37;8.40;99.90
61392;DHT22;47261;52.892;5.738;2023-04-01T19:01:36;8.40;99.90
61392;DHT22;47261;52.892;5.738;2023-04-01T19:09:31;8.40;99.90
61392;DHT22;47261;52.892;5.738;2023-04-01T19:14:51;8.40;99.90
61392;DHT22;47261;52.892;5.738;2023-04-01T19:20:03;8.30;99.90
61392;DHT22;47261;52.892;5.738;2023-04-01T19:25:45;8.30;99.90
61392;DHT22;47261;52.892;5.738;2023-04-01T19:37:20;8.20;99.90
61392;DHT22;47261;52.892;5.738;2023-04-01T19:42:53;8.10;99.90
61392;DHT22;47261;52.892;5.738;2023-04-01T19:48:13;8.10;99.90
61392;DHT22;47261;52.892;5.738;2023-04-01T19:50:55;8.10;99.90
61392;DHT22;47261;52.892;5.738;2023-04-01T19:56:19;8.00;99.90
61392;DHT22;47261;52.892;5.738;2023-04-01T19:59:47;8.00;99.90
61392;DHT22;47261;52.892;5.738;2023-04-01T20:01:52;8.00;99.90
61392;DHT22;47261;52.892;5.738;2023-04-01T20:04:35;8.00;99.90
61392;DHT22;47261;52.892;5.738;2023-04-01T20:07:07;8.00;99.90
61392;DHT22;47261;52.892;5.738;2023-04-01T20:09:55;8.00;99.90
61392;DHT22;47261;52.892;5.738;2023-04-01T20:15:44;7.90;99.90
61392;DHT22;47261;52.892;5.738;2023-04-01T20:20:57;7.90;99.90
61392;DHT22;47261;52.892;5.738;2023-04-01T20:23:49;7.90;99.90
61392;DHT22;47261;52.892;5.738;2023-04-01T20:26:22;7.80;99.90
61392;DHT22;47261;52.892;5.738;2023-04-01T20:32:15;7.80;99.90
61392;DHT22;47261;52.892;5.738;2023-04-01T20:37:35;7.70;99.90
61392;DHT22;47261;52.892;5.738;2023-04-01T20:40:51;7.70;99.90
61392;DHT22;47261;52.892;5.738;2023-04-01T20:43:57;7.70;99.90
61392;DHT22;47261;52.892;5.738;2023-04-01T20:49:33;7.70;99.90
61392;DHT22;47261;52.892;5.738;2023-04-01T20:55:53;7.60;99.90
61392;DHT22;47261;52.892;5.738;2023-04-01T21:09:47;7.40;99.90
61392;DHT22;47261;52.892;5.738;2023-04-01T21:12:38;7.40;99.90
61392;DHT22;47261;52.892;5.738;2023-04-01T21:15:25;7.40;99.90
61392;DHT22;47261;52.892;5.738;2023-04-01T21:18:19;7.40;99.90
61392;DHT22;47261;52.892;5.738;2023-04-01T21:29:53;7.30;99.90
61392;DHT22;47261;52.892;5.738;2023-04-01T21:32:36;7.30;99.90
61392;DHT22;47261;52.892;5.738;2023-04-01T22:00:19;7.10;99.90
61392;DHT22;47261;52.892;5.738;2023-04-01T22:05:59;7.10;99.90
61392;DHT22;47261;52.892;5.738;2023-04-01T22:11:50;7.10;99.90
61392;DHT22;47261;52.892;5.738;2023-04-01T22:17:05;7.10;99.90
61392;DHT22;47261;52.892;5.738;2023-04-01T22:19:46;7.10;99.90
61392;DHT22;47261;52.892;5.738;2023-04-01T22:22:31;7.10;99.90
61392;DHT22;47261;52.892;5.738;2023-04-01T22:25:13;7.10;99.90
61392;DHT22;47261;52.892;5.738;2023-04-01T22:30:24;7.10;99.90
61392;DHT22;47261;52.892;5.738;2023-04-01T22:33:04;7.10;99.90
61392;DHT22;47261;52.892;5.738;2023-04-01T22:41:09;7.00;99.90
61392;DHT22;47261;52.892;5.738;2023-04-01T22:43:43;7.00;99.90
61392;DHT22;47261;52.892;5.738;2023-04-01T22:52:14;6.90;99.90
61392;DHT22;47261;52.892;5.738;2023-04-01T22:54:50;6.90;99.90
61392;DHT22;47261;52.892;5.738;2023-04-01T23:02:37;6.80;99.90
61392;DHT22;47261;52.892;5.738;2023-04-01T23:05:09;6.80;99.90
61392;DHT22;47261;52.892;5.738;2023-04-01T23:10:21;6.80;99.90
61392;DHT22;47261;52.892;5.738;2023-04-01T23:12:51;6.80;99.90
61392;DHT22;47261;52.892;5.738;2023-04-01T23:15:18;6.80;99.90
61392;DHT22;47261;52.892;5.738;2023-04-01T23:17:51;6.70;99.90
61392;DHT22;47261;52.892;5.738;2023-04-01T23:23:33;6.70;99.90
61392;DHT22;47261;52.892;5.738;2023-04-01T23:26:12;6.70;99.90
61392;DHT22;47261;52.892;5.738;2023-04-01T23:28:52;6.70;99.90
61392;DHT22;47261;52.892;5.738;2023-04-01T23:31:32;6.70;99.90
61392;DHT22;47261;52.892;5.738;2023-04-01T23:41:50;6.70;99.90
61392;DHT22;47261;52.892;5.738;2023-04-01T23:44:17;6.60;99.90
61392;DHT22;47261;52.892;5.738;2023-04-01T23:46:44;6.60;99.90
61392;DHT22;47261;52.892;5.738;2023-04-01T23:49:19;6.60;99.90
61392;DHT22;47261;52.892;5.738;2023-04-01T23:51:56;6.60;99.90
61392;DHT22;47261;52.892;5.738;2023-04-01T23:54:30;6.60;99.90
61392;DHT22;47261;52.892;5.738;2023-04-01T23:56:57;6.60;99.90
61392;DHT22;47261;52.892;5.738;2023-04-01T23:59:31;6.60;99.90
